sensor_id;sensor_type;location;lat;lon;timestamp;P1;durP1;ratioP1;P2;durP2;ratioP2
27796;SDS011;15177;50.844;4.412;2022-12-07T00:01:19;23.27;;;12.03;;
27796;SDS011;15177;50.844;4.412;2022-12-07T00:04:07;20.43;;;11.70;;
27796;SDS011;15177;50.844;4.412;2022-12-07T00:06:40;25.20;;;13.10;;
27796;SDS011;15177;50.844;4.412;2022-12-07T00:09:15;27.47;;;13.83;;
27796;SDS011;15177;50.844;4.412;2022-12-07T00:11:42;22.40;;;12.40;;
27796;SDS011;15177;50.844;4.412;2022-12-07T00:14:13;23.50;;;13.03;;
27796;SDS011;15177;50.844;4.412;2022-12-07T00:16:40;21.33;;;12.77;;
27796;SDS011;15177;50.844;4.412;2022-12-07T00:19:07;23.70;;;13.23;;
27796;SDS011;15177;50.844;4.412;2022-12-07T00:21:34;19.90;;;12.13;;
27796;SDS011;15177;50.844;4.412;2022-12-07T00:24:01;23.63;;;13.23;;
27796;SDS011;15177;50.844;4.412;2022-12-07T00:26:29;25.30;;;13.63;;
27796;SDS011;15177;50.844;4.412;2022-12-07T00:28:57;25.20;;;12.53;;
27796;SDS011;15177;50.844;4.412;2022-12-07T00:31:29;23.33;;;12.13;;
27796;SDS011;15177;50.844;4.412;2022-12-07T00:33:58;24.90;;;13.87;;
27796;SDS011;15177;50.844;4.412;2022-12-07T00:36:25;27.10;;;13.77;;
27796;SDS011;15177;50.844;4.412;2022-12-07T00:38:51;27.10;;;13.80;;
27796;SDS011;15177;50.844;4.412;2022-12-07T00:41:18;22.47;;;13.30;;
27796;SDS011;15177;50.844;4.412;2022-12-07T00:43:46;21.17;;;13.17;;
27796;SDS011;15177;50.844;4.412;2022-12-07T00:46:13;23.90;;;14.03;;
27796;SDS011;15177;50.844;4.412;2022-12-07T00:48:39;30.83;;;14.77;;
27796;SDS011;15177;50.844;4.412;2022-12-07T00:51:05;25.00;;;14.00;;
27796;SDS011;15177;50.844;4.412;2022-12-07T00:53:34;22.87;;;14.97;;
27796;SDS011;15177;50.844;4.412;2022-12-07T00:56:11;29.63;;;15.33;;
27796;SDS011;15177;50.844;4.412;2022-12-07T00:58:41;31.67;;;15.30;;
27796;SDS011;15177;50.844;4.412;2022-12-07T01:01:08;29.37;;;15.40;;
27796;SDS011;15177;50.844;4.412;2022-12-07T01:03:35;27.93;;;15.17;;
27796;SDS011;15177;50.844;4.412;2022-12-07T01:06:02;24.87;;;15.10;;
27796;SDS011;15177;50.844;4.412;2022-12-07T01:08:28;32.73;;;15.67;;
27796;SDS011;15177;50.844;4.412;2022-12-07T01:10:58;27.93;;;16.30;;
27796;SDS011;15177;50.844;4.412;2022-12-07T01:13:25;27.50;;;14.20;;
27796;SDS011;15177;50.844;4.412;2022-12-07T01:15:56;34.63;;;15.80;;
27796;SDS011;15177;50.844;4.412;2022-12-07T01:18:24;33.17;;;16.03;;
27796;SDS011;15177;50.844;4.412;2022-12-07T01:21:02;35.37;;;16.47;;
27796;SDS011;15177;50.844;4.412;2022-12-07T01:23:33;28.30;;;14.57;;
27796;SDS011;15177;50.844;4.412;2022-12-07T01:26:02;33.90;;;15.90;;
27796;SDS011;15177;50.844;4.412;2022-12-07T01:28:29;29.70;;;15.73;;
27796;SDS011;15177;50.844;4.412;2022-12-07T01:33:26;28.43;;;16.00;;
27796;SDS011;15177;50.844;4.412;2022-12-07T01:35:53;29.90;;;16.60;;
27796;SDS011;15177;50.844;4.412;2022-12-07T01:38:19;30.47;;;15.63;;
27796;SDS011;15177;50.844;4.412;2022-12-07T01:40:53;25.30;;;14.03;;
27796;SDS011;15177;50.844;4.412;2022-12-07T01:43:19;25.30;;;14.43;;
27796;SDS011;15177;50.844;4.412;2022-12-07T01:45:48;28.43;;;14.50;;
27796;SDS011;15177;50.844;4.412;2022-12-07T01:48:14;30.63;;;14.77;;
27796;SDS011;15177;50.844;4.412;2022-12-07T01:50:45;31.77;;;15.13;;
27796;SDS011;15177;50.844;4.412;2022-12-07T01:53:13;27.00;;;14.23;;
27796;SDS011;15177;50.844;4.412;2022-12-07T01:55:41;26.20;;;14.00;;
27796;SDS011;15177;50.844;4.412;2022-12-07T01:58:09;28.60;;;14.40;;
27796;SDS011;15177;50.844;4.412;2022-12-07T02:00:37;23.10;;;13.27;;
27796;SDS011;15177;50.844;4.412;2022-12-07T02:03:08;26.20;;;14.03;;
27796;SDS011;15177;50.844;4.412;2022-12-07T02:05:38;29.40;;;14.73;;
27796;SDS011;15177;50.844;4.412;2022-12-07T02:08:06;26.33;;;14.03;;
27796;SDS011;15177;50.844;4.412;2022-12-07T02:10:34;30.63;;;13.83;;
27796;SDS011;15177;50.844;4.412;2022-12-07T02:13:01;27.53;;;14.23;;
27796;SDS011;15177;50.844;4.412;2022-12-07T02:15:38;25.77;;;14.60;;
27796;SDS011;15177;50.844;4.412;2022-12-07T02:18:41;25.53;;;13.50;;
27796;SDS011;15177;50.844;4.412;2022-12-07T02:31:44;27.63;;;15.17;;
27796;SDS011;15177;50.844;4.412;2022-12-07T02:34:21;26.90;;;15.43;;
27796;SDS011;15177;50.844;4.412;2022-12-07T02:36:57;30.00;;;14.70;;
27796;SDS011;15177;50.844;4.412;2022-12-07T02:39:31;31.77;;;14.97;;
27796;SDS011;15177;50.844;4.412;2022-12-07T02:42:02;25.37;;;13.97;;
27796;SDS011;15177;50.844;4.412;2022-12-07T02:44:39;29.80;;;13.37;;
27796;SDS011;15177;50.844;4.412;2022-12-07T02:47:06;24.83;;;12.77;;
27796;SDS011;15177;50.844;4.412;2022-12-07T02:49:36;19.93;;;11.03;;
27796;SDS011;15177;50.844;4.412;2022-12-07T02:52:04;21.13;;;10.40;;
27796;SDS011;15177;50.844;4.412;2022-12-07T02:54:29;19.90;;;10.63;;
27796;SDS011;15177;50.844;4.412;2022-12-07T03:07:52;17.20;;;9.00;;
27796;SDS011;15177;50.844;4.412;2022-12-07T03:13:25;16.70;;;9.33;;
27796;SDS011;15177;50.844;4.412;2022-12-07T03:19:03;30.53;;;9.87;;
27796;SDS011;15177;50.844;4.412;2022-12-07T03:21:40;20.73;;;9.47;;
27796;SDS011;15177;50.844;4.412;2022-12-07T03:24:10;14.40;;;8.17;;
27796;SDS011;15177;50.844;4.412;2022-12-07T03:26:51;18.30;;;8.40;;
27796;SDS011;15177;50.844;4.412;2022-12-07T03:29:28;19.17;;;9.07;;
27796;SDS011;15177;50.844;4.412;2022-12-07T03:32:01;17.27;;;8.20;;
27796;SDS011;15177;50.844;4.412;2022-12-07T03:34:36;20.20;;;8.57;;
27796;SDS011;15177;50.844;4.412;2022-12-07T03:37:16;18.30;;;9.27;;
27796;SDS011;15177;50.844;4.412;2022-12-07T03:39:58;13.97;;;8.60;;
27796;SDS011;15177;50.844;4.412;2022-12-07T03:42:34;23.00;;;7.93;;
27796;SDS011;15177;50.844;4.412;2022-12-07T03:45:00;18.80;;;9.60;;
27796;SDS011;15177;50.844;4.412;2022-12-07T03:47:29;13.73;;;8.33;;
27796;SDS011;15177;50.844;4.412;2022-12-07T03:50:05;16.83;;;9.60;;
27796;SDS011;15177;50.844;4.412;2022-12-07T03:52:40;20.63;;;9.13;;
27796;SDS011;15177;50.844;4.412;2022-12-07T03:55:17;21.80;;;9.77;;
27796;SDS011;15177;50.844;4.412;2022-12-07T03:57:48;16.47;;;8.90;;
27796;SDS011;15177;50.844;4.412;2022-12-07T04:00:17;17.33;;;8.93;;
27796;SDS011;15177;50.844;4.412;2022-12-07T04:02:43;22.17;;;8.93;;
27796;SDS011;15177;50.844;4.412;2022-12-07T04:05:09;17.47;;;8.50;;
27796;SDS011;15177;50.844;4.412;2022-12-07T04:07:35;15.43;;;8.03;;
27796;SDS011;15177;50.844;4.412;2022-12-07T04:10:01;21.57;;;9.23;;
27796;SDS011;15177;50.844;4.412;2022-12-07T04:12:29;16.07;;;9.07;;
27796;SDS011;15177;50.844;4.412;2022-12-07T04:14:56;17.67;;;9.93;;
27796;SDS011;15177;50.844;4.412;2022-12-07T04:17:21;12.27;;;7.80;;
27796;SDS011;15177;50.844;4.412;2022-12-07T04:19:47;10.73;;;7.63;;
27796;SDS011;15177;50.844;4.412;2022-12-07T04:22:13;15.93;;;7.83;;
27796;SDS011;15177;50.844;4.412;2022-12-07T04:24:38;14.33;;;7.60;;
27796;SDS011;15177;50.844;4.412;2022-12-07T04:27:04;16.47;;;8.53;;
27796;SDS011;15177;50.844;4.412;2022-12-07T04:29:30;16.57;;;8.70;;
27796;SDS011;15177;50.844;4.412;2022-12-07T04:31:55;18.80;;;8.30;;
27796;SDS011;15177;50.844;4.412;2022-12-07T04:34:21;16.67;;;9.07;;
27796;SDS011;15177;50.844;4.412;2022-12-07T04:36:47;21.77;;;10.10;;
27796;SDS011;15177;50.844;4.412;2022-12-07T04:39:25;15.27;;;9.60;;
27796;SDS011;15177;50.844;4.412;2022-12-07T04:41:56;18.07;;;9.57;;
27796;SDS011;15177;50.844;4.412;2022-12-07T04:44:23;16.43;;;9.20;;
27796;SDS011;15177;50.844;4.412;2022-12-07T04:46:50;20.57;;;10.03;;
27796;SDS011;15177;50.844;4.412;2022-12-07T04:49:16;21.10;;;10.17;;
27796;SDS011;15177;50.844;4.412;2022-12-07T04:51:43;19.80;;;9.93;;
27796;SDS011;15177;50.844;4.412;2022-12-07T04:54:09;22.80;;;11.47;;
27796;SDS011;15177;50.844;4.412;2022-12-07T04:56:35;20.43;;;11.53;;
27796;SDS011;15177;50.844;4.412;2022-12-07T04:59:02;26.93;;;12.20;;
27796;SDS011;15177;50.844;4.412;2022-12-07T05:01:29;24.50;;;12.30;;
27796;SDS011;15177;50.844;4.412;2022-12-07T05:03:55;30.53;;;13.40;;
27796;SDS011;15177;50.844;4.412;2022-12-07T05:06:21;26.70;;;14.00;;
27796;SDS011;15177;50.844;4.412;2022-12-07T05:08:47;24.23;;;12.97;;
27796;SDS011;15177;50.844;4.412;2022-12-07T05:11:13;24.03;;;12.57;;
27796;SDS011;15177;50.844;4.412;2022-12-07T05:14:00;23.57;;;12.73;;
27796;SDS011;15177;50.844;4.412;2022-12-07T05:16:27;27.27;;;12.53;;
27796;SDS011;15177;50.844;4.412;2022-12-07T05:18:53;21.27;;;12.97;;
27796;SDS011;15177;50.844;4.412;2022-12-07T05:21:18;31.30;;;13.97;;
27796;SDS011;15177;50.844;4.412;2022-12-07T05:23:44;22.13;;;12.17;;
27796;SDS011;15177;50.844;4.412;2022-12-07T05:26:10;21.33;;;11.90;;
27796;SDS011;15177;50.844;4.412;2022-12-07T05:28:35;23.10;;;11.53;;
27796;SDS011;15177;50.844;4.412;2022-12-07T05:31:02;25.67;;;13.20;;
27796;SDS011;15177;50.844;4.412;2022-12-07T05:33:28;25.90;;;12.80;;
27796;SDS011;15177;50.844;4.412;2022-12-07T05:35:54;21.97;;;12.30;;
27796;SDS011;15177;50.844;4.412;2022-12-07T05:38:20;26.37;;;11.70;;
27796;SDS011;15177;50.844;4.412;2022-12-07T05:40:45;19.03;;;11.03;;
27796;SDS011;15177;50.844;4.412;2022-12-07T05:43:11;23.93;;;11.67;;
27796;SDS011;15177;50.844;4.412;2022-12-07T05:45:37;22.57;;;10.97;;
27796;SDS011;15177;50.844;4.412;2022-12-07T05:48:02;20.83;;;10.67;;
27796;SDS011;15177;50.844;4.412;2022-12-07T05:50:28;23.27;;;11.27;;
27796;SDS011;15177;50.844;4.412;2022-12-07T05:52:54;24.90;;;10.47;;
27796;SDS011;15177;50.844;4.412;2022-12-07T05:55:20;17.83;;;10.43;;
27796;SDS011;15177;50.844;4.412;2022-12-07T05:57:47;19.10;;;9.40;;
27796;SDS011;15177;50.844;4.412;2022-12-07T06:00:31;22.43;;;11.00;;
27796;SDS011;15177;50.844;4.412;2022-12-07T06:02:57;17.53;;;10.27;;
27796;SDS011;15177;50.844;4.412;2022-12-07T06:05:23;18.83;;;9.70;;
27796;SDS011;15177;50.844;4.412;2022-12-07T06:07:49;18.30;;;9.97;;
27796;SDS011;15177;50.844;4.412;2022-12-07T06:10:15;22.53;;;9.93;;
27796;SDS011;15177;50.844;4.412;2022-12-07T06:12:41;15.80;;;9.07;;
27796;SDS011;15177;50.844;4.412;2022-12-07T06:15:08;18.80;;;9.53;;
27796;SDS011;15177;50.844;4.412;2022-12-07T06:17:35;16.40;;;9.07;;
27796;SDS011;15177;50.844;4.412;2022-12-07T06:20:01;18.87;;;8.77;;
27796;SDS011;15177;50.844;4.412;2022-12-07T06:22:28;19.03;;;9.40;;
27796;SDS011;15177;50.844;4.412;2022-12-07T06:24:54;20.10;;;9.17;;
27796;SDS011;15177;50.844;4.412;2022-12-07T06:27:20;17.80;;;8.40;;
27796;SDS011;15177;50.844;4.412;2022-12-07T06:29:46;15.03;;;8.53;;
27796;SDS011;15177;50.844;4.412;2022-12-07T06:32:12;19.87;;;8.83;;
27796;SDS011;15177;50.844;4.412;2022-12-07T06:34:37;17.57;;;8.10;;
27796;SDS011;15177;50.844;4.412;2022-12-07T06:37:03;19.27;;;8.43;;
27796;SDS011;15177;50.844;4.412;2022-12-07T06:39:31;16.33;;;8.50;;
27796;SDS011;15177;50.844;4.412;2022-12-07T06:41:58;25.00;;;9.90;;
27796;SDS011;15177;50.844;4.412;2022-12-07T06:44:24;22.63;;;9.50;;
27796;SDS011;15177;50.844;4.412;2022-12-07T06:46:50;15.23;;;9.27;;
27796;SDS011;15177;50.844;4.412;2022-12-07T06:49:17;21.40;;;8.70;;
27796;SDS011;15177;50.844;4.412;2022-12-07T06:51:43;15.57;;;8.30;;
27796;SDS011;15177;50.844;4.412;2022-12-07T06:54:12;16.53;;;8.47;;
27796;SDS011;15177;50.844;4.412;2022-12-07T06:56:40;14.47;;;8.37;;
27796;SDS011;15177;50.844;4.412;2022-12-07T06:59:06;19.30;;;8.10;;
27796;SDS011;15177;50.844;4.412;2022-12-07T07:01:34;13.90;;;7.77;;
27796;SDS011;15177;50.844;4.412;2022-12-07T07:04:01;19.17;;;8.00;;
27796;SDS011;15177;50.844;4.412;2022-12-07T07:06:28;18.47;;;7.93;;
27796;SDS011;15177;50.844;4.412;2022-12-07T07:08:54;17.70;;;8.17;;
27796;SDS011;15177;50.844;4.412;2022-12-07T07:11:19;14.10;;;7.20;;
27796;SDS011;15177;50.844;4.412;2022-12-07T07:13:45;17.47;;;7.10;;
27796;SDS011;15177;50.844;4.412;2022-12-07T07:16:11;16.43;;;7.57;;
27796;SDS011;15177;50.844;4.412;2022-12-07T07:18:43;18.43;;;7.83;;
27796;SDS011;15177;50.844;4.412;2022-12-07T07:21:08;12.77;;;6.83;;
27796;SDS011;15177;50.844;4.412;2022-12-07T07:23:34;19.93;;;6.70;;
27796;SDS011;15177;50.844;4.412;2022-12-07T07:26:00;14.23;;;7.17;;
27796;SDS011;15177;50.844;4.412;2022-12-07T07:28:27;13.73;;;7.23;;
27796;SDS011;15177;50.844;4.412;2022-12-07T07:30:53;13.23;;;7.10;;
27796;SDS011;15177;50.844;4.412;2022-12-07T07:33:19;15.10;;;7.37;;
27796;SDS011;15177;50.844;4.412;2022-12-07T07:35:47;14.60;;;7.60;;
27796;SDS011;15177;50.844;4.412;2022-12-07T07:38:14;12.13;;;6.77;;
27796;SDS011;15177;50.844;4.412;2022-12-07T07:40:40;13.63;;;7.87;;
27796;SDS011;15177;50.844;4.412;2022-12-07T07:43:05;17.83;;;7.23;;
27796;SDS011;15177;50.844;4.412;2022-12-07T07:45:31;19.63;;;7.57;;
27796;SDS011;15177;50.844;4.412;2022-12-07T07:47:57;16.87;;;7.53;;
27796;SDS011;15177;50.844;4.412;2022-12-07T07:50:24;17.53;;;7.30;;
27796;SDS011;15177;50.844;4.412;2022-12-07T07:52:50;13.77;;;7.50;;
27796;SDS011;15177;50.844;4.412;2022-12-07T07:55:18;21.53;;;7.93;;
27796;SDS011;15177;50.844;4.412;2022-12-07T07:57:44;17.07;;;7.90;;
27796;SDS011;15177;50.844;4.412;2022-12-07T08:00:10;17.97;;;7.60;;
27796;SDS011;15177;50.844;4.412;2022-12-07T08:02:38;20.27;;;7.23;;
27796;SDS011;15177;50.844;4.412;2022-12-07T08:05:05;14.47;;;7.00;;
27796;SDS011;15177;50.844;4.412;2022-12-07T08:07:31;19.90;;;8.23;;
27796;SDS011;15177;50.844;4.412;2022-12-07T08:09:57;20.40;;;8.07;;
27796;SDS011;15177;50.844;4.412;2022-12-07T08:12:24;18.87;;;8.17;;
27796;SDS011;15177;50.844;4.412;2022-12-07T08:14:49;17.80;;;7.87;;
27796;SDS011;15177;50.844;4.412;2022-12-07T08:17:15;13.13;;;7.07;;
27796;SDS011;15177;50.844;4.412;2022-12-07T08:19:40;14.77;;;7.37;;
27796;SDS011;15177;50.844;4.412;2022-12-07T08:22:06;16.43;;;7.60;;
27796;SDS011;15177;50.844;4.412;2022-12-07T08:24:33;14.87;;;7.33;;
27796;SDS011;15177;50.844;4.412;2022-12-07T08:27:00;12.70;;;6.97;;
27796;SDS011;15177;50.844;4.412;2022-12-07T08:29:25;15.70;;;8.07;;
27796;SDS011;15177;50.844;4.412;2022-12-07T08:31:51;18.33;;;7.67;;
27796;SDS011;15177;50.844;4.412;2022-12-07T08:34:17;15.77;;;8.07;;
27796;SDS011;15177;50.844;4.412;2022-12-07T08:36:43;16.07;;;7.60;;
27796;SDS011;15177;50.844;4.412;2022-12-07T08:39:08;14.33;;;7.40;;
27796;SDS011;15177;50.844;4.412;2022-12-07T08:41:34;14.23;;;7.83;;
27796;SDS011;15177;50.844;4.412;2022-12-07T08:44:00;11.87;;;7.90;;
27796;SDS011;15177;50.844;4.412;2022-12-07T08:46:28;17.00;;;7.30;;
27796;SDS011;15177;50.844;4.412;2022-12-07T08:49:08;18.50;;;7.27;;
27796;SDS011;15177;50.844;4.412;2022-12-07T08:51:40;13.00;;;6.80;;
27796;SDS011;15177;50.844;4.412;2022-12-07T08:54:09;15.00;;;7.97;;
27796;SDS011;15177;50.844;4.412;2022-12-07T08:56:38;12.27;;;7.07;;
27796;SDS011;15177;50.844;4.412;2022-12-07T08:59:05;12.77;;;6.83;;
27796;SDS011;15177;50.844;4.412;2022-12-07T09:01:32;12.97;;;6.87;;
27796;SDS011;15177;50.844;4.412;2022-12-07T09:03:58;18.63;;;6.90;;
27796;SDS011;15177;50.844;4.412;2022-12-07T09:06:23;13.30;;;6.37;;
27796;SDS011;15177;50.844;4.412;2022-12-07T09:08:50;16.17;;;5.93;;
27796;SDS011;15177;50.844;4.412;2022-12-07T09:11:20;14.77;;;6.43;;
27796;SDS011;15177;50.844;4.412;2022-12-07T09:13:46;10.20;;;5.80;;
27796;SDS011;15177;50.844;4.412;2022-12-07T09:16:13;23.97;;;5.97;;
27796;SDS011;15177;50.844;4.412;2022-12-07T09:18:39;13.80;;;5.47;;
27796;SDS011;15177;50.844;4.412;2022-12-07T09:21:06;13.17;;;5.10;;
27796;SDS011;15177;50.844;4.412;2022-12-07T09:23:33;16.77;;;5.37;;
27796;SDS011;15177;50.844;4.412;2022-12-07T09:26:02;16.67;;;5.70;;
27796;SDS011;15177;50.844;4.412;2022-12-07T09:28:32;13.83;;;5.10;;
27796;SDS011;15177;50.844;4.412;2022-12-07T09:30:58;11.70;;;5.53;;
27796;SDS011;15177;50.844;4.412;2022-12-07T09:33:23;12.77;;;5.40;;
27796;SDS011;15177;50.844;4.412;2022-12-07T09:35:50;11.27;;;6.00;;
27796;SDS011;15177;50.844;4.412;2022-12-07T09:38:16;12.70;;;5.20;;
27796;SDS011;15177;50.844;4.412;2022-12-07T09:40:43;14.00;;;5.40;;
27796;SDS011;15177;50.844;4.412;2022-12-07T09:43:17;13.30;;;5.27;;
27796;SDS011;15177;50.844;4.412;2022-12-07T09:45:45;13.20;;;4.83;;
27796;SDS011;15177;50.844;4.412;2022-12-07T09:48:21;11.33;;;5.13;;
27796;SDS011;15177;50.844;4.412;2022-12-07T09:50:50;10.50;;;5.10;;
27796;SDS011;15177;50.844;4.412;2022-12-07T09:53:24;11.53;;;5.93;;
27796;SDS011;15177;50.844;4.412;2022-12-07T09:55:52;11.97;;;5.47;;
27796;SDS011;15177;50.844;4.412;2022-12-07T09:58:22;10.23;;;5.40;;
27796;SDS011;15177;50.844;4.412;2022-12-07T10:00:50;19.53;;;5.97;;
27796;SDS011;15177;50.844;4.412;2022-12-07T10:03:38;11.67;;;5.67;;
27796;SDS011;15177;50.844;4.412;2022-12-07T10:06:07;21.00;;;5.83;;
27796;SDS011;15177;50.844;4.412;2022-12-07T10:08:37;16.47;;;5.97;;
27796;SDS011;15177;50.844;4.412;2022-12-07T10:11:03;9.50;;;6.07;;
27796;SDS011;15177;50.844;4.412;2022-12-07T10:13:36;16.50;;;6.00;;
27796;SDS011;15177;50.844;4.412;2022-12-07T10:16:01;16.10;;;4.83;;
27796;SDS011;15177;50.844;4.412;2022-12-07T10:21:14;14.30;;;5.37;;
27796;SDS011;15177;50.844;4.412;2022-12-07T10:31:44;10.93;;;5.43;;
27796;SDS011;15177;50.844;4.412;2022-12-07T10:34:24;13.43;;;5.80;;
27796;SDS011;15177;50.844;4.412;2022-12-07T10:36:51;10.53;;;6.07;;
27796;SDS011;15177;50.844;4.412;2022-12-07T10:39:18;13.10;;;5.93;;
27796;SDS011;15177;50.844;4.412;2022-12-07T10:41:56;10.20;;;5.10;;
27796;SDS011;15177;50.844;4.412;2022-12-07T10:44:32;12.40;;;6.57;;
27796;SDS011;15177;50.844;4.412;2022-12-07T10:55:16;10.93;;;6.17;;
27796;SDS011;15177;50.844;4.412;2022-12-07T11:00:43;19.03;;;6.90;;
27796;SDS011;15177;50.844;4.412;2022-12-07T11:11:33;13.63;;;5.13;;
27796;SDS011;15177;50.844;4.412;2022-12-07T11:14:18;10.87;;;5.13;;
27796;SDS011;15177;50.844;4.412;2022-12-07T11:25:27;12.17;;;4.83;;
27796;SDS011;15177;50.844;4.412;2022-12-07T11:28:06;11.27;;;5.13;;
27796;SDS011;15177;50.844;4.412;2022-12-07T11:34:15;10.73;;;5.17;;
27796;SDS011;15177;50.844;4.412;2022-12-07T11:39:33;13.20;;;4.63;;
27796;SDS011;15177;50.844;4.412;2022-12-07T11:42:06;11.83;;;4.60;;
27796;SDS011;15177;50.844;4.412;2022-12-07T11:50:14;13.63;;;4.50;;
27796;SDS011;15177;50.844;4.412;2022-12-07T11:55:48;9.47;;;4.03;;
27796;SDS011;15177;50.844;4.412;2022-12-07T12:03:49;21.07;;;4.20;;
27796;SDS011;15177;50.844;4.412;2022-12-07T12:06:40;7.37;;;3.87;;
27796;SDS011;15177;50.844;4.412;2022-12-07T12:09:14;10.90;;;3.43;;
27796;SDS011;15177;50.844;4.412;2022-12-07T12:25:50;12.93;;;3.07;;
27796;SDS011;15177;50.844;4.412;2022-12-07T12:28:27;10.57;;;3.40;;
27796;SDS011;15177;50.844;4.412;2022-12-07T12:31:05;10.53;;;2.97;;
27796;SDS011;15177;50.844;4.412;2022-12-07T12:33:34;6.00;;;2.80;;
27796;SDS011;15177;50.844;4.412;2022-12-07T12:42:07;10.60;;;3.03;;
27796;SDS011;15177;50.844;4.412;2022-12-07T12:46:55;8.00;;;1.90;;
27796;SDS011;15177;50.844;4.412;2022-12-07T12:57:34;9.43;;;2.30;;
27796;SDS011;15177;50.844;4.412;2022-12-07T13:00:02;6.17;;;2.27;;
27796;SDS011;15177;50.844;4.412;2022-12-07T13:02:35;5.70;;;2.27;;
27796;SDS011;15177;50.844;4.412;2022-12-07T13:20:49;15.20;;;3.20;;
27796;SDS011;15177;50.844;4.412;2022-12-07T13:23:19;5.70;;;2.50;;
27796;SDS011;15177;50.844;4.412;2022-12-07T13:29:03;7.00;;;2.73;;
27796;SDS011;15177;50.844;4.412;2022-12-07T13:31:51;9.93;;;3.17;;
27796;SDS011;15177;50.844;4.412;2022-12-07T13:36:54;7.60;;;2.97;;
27796;SDS011;15177;50.844;4.412;2022-12-07T13:39:23;11.33;;;2.63;;
27796;SDS011;15177;50.844;4.412;2022-12-07T13:41:57;4.03;;;2.13;;
27796;SDS011;15177;50.844;4.412;2022-12-07T13:44:25;9.00;;;1.97;;
27796;SDS011;15177;50.844;4.412;2022-12-07T13:49:51;5.87;;;2.47;;
27796;SDS011;15177;50.844;4.412;2022-12-07T13:52:20;5.80;;;2.33;;
27796;SDS011;15177;50.844;4.412;2022-12-07T13:54:58;8.97;;;2.17;;
27796;SDS011;15177;50.844;4.412;2022-12-07T13:57:26;7.17;;;2.40;;
27796;SDS011;15177;50.844;4.412;2022-12-07T13:59:54;10.17;;;2.70;;
27796;SDS011;15177;50.844;4.412;2022-12-07T14:02:21;8.27;;;2.10;;
27796;SDS011;15177;50.844;4.412;2022-12-07T14:05:07;5.13;;;2.47;;
27796;SDS011;15177;50.844;4.412;2022-12-07T14:07:49;4.47;;;2.17;;
27796;SDS011;15177;50.844;4.412;2022-12-07T14:12:53;3.67;;;2.10;;
27796;SDS011;15177;50.844;4.412;2022-12-07T14:15:21;5.20;;;2.17;;
27796;SDS011;15177;50.844;4.412;2022-12-07T14:17:58;8.93;;;2.03;;
27796;SDS011;15177;50.844;4.412;2022-12-07T14:20:31;6.77;;;2.57;;
27796;SDS011;15177;50.844;4.412;2022-12-07T14:22:59;6.00;;;2.73;;
27796;SDS011;15177;50.844;4.412;2022-12-07T14:25:43;7.93;;;2.30;;
27796;SDS011;15177;50.844;4.412;2022-12-07T14:28:36;7.37;;;3.07;;
27796;SDS011;15177;50.844;4.412;2022-12-07T14:31:03;5.67;;;2.27;;
27796;SDS011;15177;50.844;4.412;2022-12-07T14:33:34;6.43;;;2.93;;
27796;SDS011;15177;50.844;4.412;2022-12-07T14:36:00;8.77;;;3.93;;
27796;SDS011;15177;50.844;4.412;2022-12-07T14:38:25;6.70;;;3.07;;
27796;SDS011;15177;50.844;4.412;2022-12-07T14:40:52;7.13;;;2.90;;
27796;SDS011;15177;50.844;4.412;2022-12-07T14:43:18;11.10;;;3.13;;
27796;SDS011;15177;50.844;4.412;2022-12-07T14:45:45;4.60;;;2.73;;
27796;SDS011;15177;50.844;4.412;2022-12-07T14:48:13;10.23;;;2.97;;
27796;SDS011;15177;50.844;4.412;2022-12-07T14:50:44;9.27;;;2.03;;
27796;SDS011;15177;50.844;4.412;2022-12-07T14:53:15;4.17;;;2.30;;
27796;SDS011;15177;50.844;4.412;2022-12-07T14:55:43;7.40;;;2.07;;
27796;SDS011;15177;50.844;4.412;2022-12-07T14:58:15;6.37;;;1.97;;
27796;SDS011;15177;50.844;4.412;2022-12-07T15:00:42;11.53;;;2.27;;
27796;SDS011;15177;50.844;4.412;2022-12-07T15:03:08;7.30;;;2.30;;
27796;SDS011;15177;50.844;4.412;2022-12-07T15:05:37;6.07;;;1.67;;
27796;SDS011;15177;50.844;4.412;2022-12-07T15:08:05;7.17;;;1.80;;
27796;SDS011;15177;50.844;4.412;2022-12-07T15:10:32;8.17;;;1.63;;
27796;SDS011;15177;50.844;4.412;2022-12-07T15:12:59;7.33;;;1.57;;
27796;SDS011;15177;50.844;4.412;2022-12-07T15:15:46;5.63;;;1.87;;
27796;SDS011;15177;50.844;4.412;2022-12-07T15:18:12;3.73;;;1.30;;
27796;SDS011;15177;50.844;4.412;2022-12-07T15:20:38;4.03;;;1.73;;
27796;SDS011;15177;50.844;4.412;2022-12-07T15:23:04;5.07;;;2.80;;
27796;SDS011;15177;50.844;4.412;2022-12-07T15:25:30;8.47;;;2.87;;
27796;SDS011;15177;50.844;4.412;2022-12-07T15:27:56;9.80;;;3.60;;
27796;SDS011;15177;50.844;4.412;2022-12-07T15:30:21;10.07;;;3.07;;
27796;SDS011;15177;50.844;4.412;2022-12-07T15:32:50;10.17;;;3.87;;
27796;SDS011;15177;50.844;4.412;2022-12-07T15:35:16;10.23;;;4.03;;
27796;SDS011;15177;50.844;4.412;2022-12-07T15:37:42;8.27;;;3.00;;
27796;SDS011;15177;50.844;4.412;2022-12-07T15:40:08;8.37;;;2.73;;
27796;SDS011;15177;50.844;4.412;2022-12-07T15:42:37;11.77;;;3.13;;
27796;SDS011;15177;50.844;4.412;2022-12-07T15:45:04;6.83;;;2.43;;
27796;SDS011;15177;50.844;4.412;2022-12-07T15:47:39;5.83;;;2.60;;
27796;SDS011;15177;50.844;4.412;2022-12-07T15:50:07;5.17;;;2.40;;
27796;SDS011;15177;50.844;4.412;2022-12-07T15:52:41;4.60;;;2.47;;
27796;SDS011;15177;50.844;4.412;2022-12-07T15:55:08;8.13;;;2.90;;
27796;SDS011;15177;50.844;4.412;2022-12-07T15:57:35;6.63;;;3.33;;
27796;SDS011;15177;50.844;4.412;2022-12-07T16:00:06;6.63;;;3.77;;
27796;SDS011;15177;50.844;4.412;2022-12-07T16:02:34;7.43;;;3.57;;
27796;SDS011;15177;50.844;4.412;2022-12-07T16:05:00;5.37;;;3.20;;
27796;SDS011;15177;50.844;4.412;2022-12-07T16:07:25;9.47;;;3.60;;
27796;SDS011;15177;50.844;4.412;2022-12-07T16:09:51;6.73;;;3.63;;
27796;SDS011;15177;50.844;4.412;2022-12-07T16:12:17;6.57;;;3.43;;
27796;SDS011;15177;50.844;4.412;2022-12-07T16:14:43;9.50;;;3.40;;
27796;SDS011;15177;50.844;4.412;2022-12-07T16:17:08;7.00;;;3.70;;
27796;SDS011;15177;50.844;4.412;2022-12-07T16:19:35;11.00;;;4.47;;
27796;SDS011;15177;50.844;4.412;2022-12-07T16:22:01;8.83;;;3.87;;
27796;SDS011;15177;50.844;4.412;2022-12-07T16:24:28;6.90;;;3.93;;
27796;SDS011;15177;50.844;4.412;2022-12-07T16:26:53;7.57;;;4.20;;
27796;SDS011;15177;50.844;4.412;2022-12-07T16:29:21;11.83;;;4.47;;
27796;SDS011;15177;50.844;4.412;2022-12-07T16:31:48;10.97;;;3.97;;
27796;SDS011;15177;50.844;4.412;2022-12-07T16:34:15;8.93;;;4.10;;
27796;SDS011;15177;50.844;4.412;2022-12-07T16:36:41;8.97;;;4.13;;
27796;SDS011;15177;50.844;4.412;2022-12-07T16:39:08;5.60;;;3.27;;
27796;SDS011;15177;50.844;4.412;2022-12-07T16:41:35;6.90;;;3.50;;
27796;SDS011;15177;50.844;4.412;2022-12-07T16:44:02;9.70;;;3.43;;
27796;SDS011;15177;50.844;4.412;2022-12-07T16:46:29;9.10;;;3.43;;
27796;SDS011;15177;50.844;4.412;2022-12-07T16:48:56;7.60;;;4.20;;
27796;SDS011;15177;50.844;4.412;2022-12-07T16:51:22;8.43;;;4.23;;
27796;SDS011;15177;50.844;4.412;2022-12-07T16:53:47;9.70;;;3.90;;
27796;SDS011;15177;50.844;4.412;2022-12-07T16:56:15;11.23;;;4.20;;
27796;SDS011;15177;50.844;4.412;2022-12-07T16:58:41;8.37;;;4.57;;
27796;SDS011;15177;50.844;4.412;2022-12-07T17:01:08;8.60;;;4.60;;
27796;SDS011;15177;50.844;4.412;2022-12-07T17:03:38;13.20;;;4.33;;
27796;SDS011;15177;50.844;4.412;2022-12-07T17:06:10;8.77;;;4.50;;
27796;SDS011;15177;50.844;4.412;2022-12-07T17:08:43;10.50;;;4.93;;
27796;SDS011;15177;50.844;4.412;2022-12-07T17:11:13;15.77;;;4.83;;